createdAt,value
2018-02-15T00:02:19.165Z,18.10
2018-02-15T00:04:46.630Z,17.30
2018-02-15T00:07:14.177Z,21.33
2018-02-15T00:09:41.662Z,15.70
2018-02-15T00:12:09.312Z,16.40
2018-02-15T00:14:36.870Z,18.73
2018-02-15T00:17:04.538Z,15.47
2018-02-15T00:19:32.782Z,16.20
2018-02-15T00:22:00.257Z,19.03
2018-02-15T00:24:27.729Z,20.30
2018-02-15T00:26:55.957Z,16.20
2018-02-15T00:29:23.428Z,16.20
2018-02-15T00:31:50.954Z,18.70
2018-02-15T00:34:18.570Z,23.67
2018-02-15T00:36:46.026Z,20.27
2018-02-15T00:39:13.510Z,15.67
2018-02-15T00:41:41.740Z,21.63
2018-02-15T00:44:09.217Z,19.37
2018-02-15T00:46:36.677Z,17.27
2018-02-15T00:49:05.131Z,19.50
2018-02-15T00:51:32.721Z,20.00
2018-02-15T00:54:00.978Z,19.10
2018-02-15T00:56:29.212Z,12.80
2018-02-15T00:58:56.674Z,14.63
2018-02-15T01:01:24.145Z,15.13
2018-02-15T01:03:51.609Z,13.00
2018-02-15T01:06:19.125Z,13.67
2018-02-15T01:08:46.604Z,17.43
2018-02-15T01:11:14.083Z,12.30
2018-02-15T01:13:41.553Z,16.17
2018-02-15T01:16:09.020Z,15.03
2018-02-15T01:18:36.489Z,16.53
2018-02-15T01:21:04.743Z,15.63
2018-02-15T01:23:32.323Z,12.60
2018-02-15T01:25:59.791Z,19.40
2018-02-15T01:28:28.691Z,14.23
2018-02-15T01:30:56.908Z,18.93
2018-02-15T01:33:24.380Z,13.90
2018-02-15T01:35:51.842Z,15.50
2018-02-15T01:38:19.316Z,17.50
2018-02-15T01:40:47.541Z,12.23
2018-02-15T01:43:15.012Z,22.53
2018-02-15T01:45:42.486Z,15.50
2018-02-15T01:48:09.960Z,12.80
2018-02-15T01:50:38.256Z,17.97
2018-02-15T01:53:05.732Z,10.73
2018-02-15T01:55:33.192Z,13.23
2018-02-15T01:58:00.725Z,20.20
2018-02-15T02:00:28.185Z,13.97
2018-02-15T02:02:55.810Z,16.97
2018-02-15T02:05:23.363Z,12.30
2018-02-15T02:07:50.845Z,13.57
2018-02-15T02:10:19.082Z,16.87
2018-02-15T02:12:46.550Z,12.87
2018-02-15T02:15:14.789Z,14.33
2018-02-15T02:17:42.270Z,15.63
2018-02-15T02:20:09.746Z,12.10
2018-02-15T02:22:37.216Z,14.47
2018-02-15T02:25:04.684Z,13.27
2018-02-15T02:27:32.918Z,17.60
2018-02-15T02:30:00.527Z,13.53
2018-02-15T02:32:28.810Z,13.00
2018-02-15T02:34:56.287Z,14.80
2018-02-15T02:37:23.741Z,13.17
2018-02-15T02:39:51.221Z,13.37
2018-02-15T02:42:18.785Z,13.20
2018-02-15T02:44:46.271Z,17.07
2018-02-15T02:47:14.558Z,13.87
2018-02-15T02:49:42.838Z,16.10
2018-02-15T02:52:11.053Z,11.37
2018-02-15T02:54:38.516Z,13.10
2018-02-15T02:57:05.992Z,14.17
2018-02-15T02:59:33.467Z,14.50
2018-02-15T03:02:00.934Z,13.43
2018-02-15T03:04:29.170Z,13.63
2018-02-15T03:06:56.652Z,14.77
2018-02-15T03:09:24.216Z,13.90
2018-02-15T03:11:51.688Z,17.10
2018-02-15T03:14:19.909Z,13.10
2018-02-15T03:16:47.366Z,15.20
2018-02-15T03:19:14.845Z,16.60
2018-02-15T03:21:42.381Z,15.13
2018-02-15T03:24:09.853Z,20.23
2018-02-15T03:26:37.327Z,15.20
2018-02-15T03:29:04.836Z,14.50
2018-02-15T03:31:32.317Z,15.33
2018-02-15T03:33:59.793Z,15.30
2018-02-15T03:36:27.272Z,15.30
2018-02-15T03:38:55.735Z,18.93
2018-02-15T03:41:23.293Z,15.43
2018-02-15T03:43:50.826Z,22.13
2018-02-15T03:46:18.313Z,21.23
2018-02-15T03:48:46.577Z,20.37
2018-02-15T03:51:15.546Z,18.77
2018-02-15T03:53:43.028Z,19.07
2018-02-15T03:56:10.508Z,17.97
2018-02-15T03:58:38.020Z,19.83
2018-02-15T04:01:05.500Z,19.70
2018-02-15T04:03:32.989Z,20.53
2018-02-15T04:06:01.220Z,18.50
2018-02-15T04:08:28.692Z,21.10
2018-02-15T04:10:56.164Z,22.60
2018-02-15T04:13:24.401Z,23.87
2018-02-15T04:15:51.952Z,18.70
2018-02-15T04:18:19.439Z,20.60
2018-02-15T04:20:46.916Z,19.87
2018-02-15T04:23:15.140Z,22.80
2018-02-15T04:25:42.733Z,22.67
2018-02-15T04:28:10.273Z,23.07
2018-02-15T04:30:37.752Z,21.50
2018-02-15T04:33:05.221Z,28.33
2018-02-15T04:35:33.466Z,31.80
2018-02-15T04:38:00.943Z,29.70
2018-02-15T04:40:28.421Z,38.03
2018-02-15T04:42:56.678Z,34.77
2018-02-15T04:45:24.148Z,31.83
2018-02-15T04:47:52.391Z,37.50
2018-02-15T04:50:19.868Z,38.07
2018-02-15T04:52:47.354Z,40.73
2018-02-15T04:55:14.885Z,40.63
2018-02-15T04:57:42.406Z,50.60
2018-02-15T05:00:10.085Z,39.87
2018-02-15T05:02:37.610Z,41.87
2018-02-15T05:05:05.217Z,38.67
2018-02-15T05:07:34.198Z,45.67
2018-02-15T05:10:01.671Z,36.73
2018-02-15T05:12:29.144Z,44.27
2018-02-15T05:14:57.380Z,42.30
2018-02-15T05:17:24.849Z,36.67
2018-02-15T05:19:52.310Z,40.43
2018-02-15T05:22:19.850Z,42.37
2018-02-15T05:24:47.312Z,36.43
2018-02-15T05:27:14.772Z,39.93
2018-02-15T05:29:42.256Z,44.17
2018-02-15T05:32:09.704Z,40.50
2018-02-15T05:34:37.948Z,47.13
2018-02-15T05:37:05.413Z,44.40
2018-02-15T05:39:32.887Z,45.90
2018-02-15T05:42:00.356Z,40.97
2018-02-15T05:44:28.653Z,46.50
2018-02-15T05:46:56.881Z,52.43
2018-02-15T05:49:25.134Z,47.87
2018-02-15T05:51:52.608Z,44.30
2018-02-15T05:54:20.084Z,42.83
2018-02-15T05:56:49.089Z,47.77
2018-02-15T05:59:16.561Z,46.70
2018-02-15T06:01:44.797Z,45.73
2018-02-15T06:04:12.276Z,44.77
2018-02-15T06:06:39.790Z,38.53
2018-02-15T06:09:07.544Z,39.70
2018-02-15T06:11:35.162Z,47.37
2018-02-15T06:14:03.437Z,43.50
2018-02-15T06:16:31.817Z,40.67
2018-02-15T06:19:00.045Z,38.77
2018-02-15T06:21:27.531Z,39.60
2018-02-15T06:23:54.998Z,38.43
2018-02-15T06:26:23.253Z,41.53
2018-02-15T06:28:50.821Z,36.93
2018-02-15T06:31:18.385Z,38.27
2018-02-15T06:33:45.840Z,35.10
2018-02-15T06:36:13.393Z,36.60
2018-02-15T06:38:40.849Z,36.33
2018-02-15T06:41:08.326Z,33.63
2018-02-15T06:43:36.649Z,37.97
2018-02-15T06:46:04.138Z,35.00
2018-02-15T06:48:31.621Z,38.23
2018-02-15T06:50:59.861Z,36.70
2018-02-15T06:53:27.349Z,37.77
2018-02-15T06:55:55.593Z,36.07
2018-02-15T06:58:23.169Z,33.90
2018-02-15T07:00:50.649Z,34.00
2018-02-15T07:03:18.892Z,31.30
2018-02-15T07:05:46.361Z,34.80
2018-02-15T07:08:13.831Z,36.73
2018-02-15T07:10:42.065Z,32.70
2018-02-15T07:13:09.611Z,31.23
2018-02-15T07:15:37.145Z,33.53
2018-02-15T07:18:04.620Z,39.13
2018-02-15T07:20:32.084Z,31.67
2018-02-15T07:22:59.565Z,32.03
2018-02-15T07:25:27.107Z,32.13
2018-02-15T07:27:54.569Z,28.13
2018-02-15T07:30:22.070Z,25.03
2018-02-15T07:32:50.405Z,32.67
2018-02-15T07:35:17.906Z,30.83
2018-02-15T07:37:46.136Z,26.20
2018-02-15T07:40:13.805Z,27.80
2018-02-15T07:42:41.427Z,25.17
2018-02-15T07:45:08.897Z,22.40
2018-02-15T07:47:36.373Z,27.40
2018-02-15T07:50:03.861Z,26.07
2018-02-15T07:52:31.323Z,25.00
2018-02-15T07:55:02.037Z,27.37
2018-02-15T07:57:29.507Z,24.17
2018-02-15T07:59:56.977Z,23.00
2018-02-15T08:02:25.412Z,23.90
2018-02-15T08:04:53.657Z,22.97
2018-02-15T08:07:21.107Z,20.63
2018-02-15T08:09:48.578Z,29.80
2018-02-15T08:12:16.066Z,25.37
2018-02-15T08:14:43.563Z,19.90
2018-02-15T08:17:11.811Z,19.60
2018-02-15T08:19:39.285Z,22.07
2018-02-15T08:22:06.765Z,21.70
2018-02-15T08:24:34.226Z,24.70
2018-02-15T08:27:01.723Z,20.20
2018-02-15T08:29:29.187Z,24.70
2018-02-15T08:31:56.666Z,24.53
2018-02-15T08:34:24.133Z,21.90
2018-02-15T08:36:52.572Z,20.33
2018-02-15T08:39:20.249Z,23.60
2018-02-15T08:41:47.753Z,26.63
2018-02-15T08:44:15.335Z,25.27
2018-02-15T08:46:42.883Z,21.83
2018-02-15T08:49:11.843Z,25.50
2018-02-15T08:51:40.082Z,22.47
2018-02-15T08:54:07.563Z,22.00
2018-02-15T08:56:35.070Z,28.90
2018-02-15T08:59:02.539Z,25.30
2018-02-15T09:01:30.014Z,24.73
2018-02-15T09:03:57.483Z,23.10
2018-02-15T09:06:24.952Z,23.70
2018-02-15T09:08:52.425Z,24.67
2018-02-15T09:11:20.677Z,20.90
2018-02-15T09:13:48.157Z,24.33
2018-02-15T09:16:16.398Z,26.27
2018-02-15T09:18:43.892Z,24.30
2018-02-15T09:21:12.125Z,30.50
2018-02-15T09:23:39.627Z,23.57
2018-02-15T09:26:07.856Z,29.00
2018-02-15T09:28:35.330Z,24.30
2018-02-15T09:31:02.816Z,24.00
2018-02-15T09:33:31.165Z,29.43
2018-02-15T09:35:58.661Z,32.63
2018-02-15T09:38:26.128Z,28.47
2018-02-15T09:40:53.690Z,26.50
2018-02-15T09:43:21.156Z,30.37
2018-02-15T09:45:48.715Z,28.17
2018-02-15T09:48:16.187Z,25.00
2018-02-15T09:50:43.661Z,25.73
2018-02-15T09:53:11.336Z,24.60
2018-02-15T09:55:38.844Z,30.20
2018-02-15T09:58:06.335Z,28.60
2018-02-15T10:00:33.817Z,25.37
2018-02-15T10:03:02.192Z,33.27
2018-02-15T10:05:29.848Z,28.13
2018-02-15T10:07:57.313Z,29.60
2018-02-15T10:10:25.623Z,29.03
2018-02-15T10:12:53.848Z,29.27
2018-02-15T10:15:23.045Z,27.23
2018-02-15T10:17:50.553Z,32.47
2018-02-15T10:20:18.031Z,28.00
2018-02-15T10:22:45.528Z,35.87
2018-02-15T10:25:13.033Z,34.77
2018-02-15T10:27:41.129Z,31.60
2018-02-15T10:30:08.624Z,31.83
2018-02-15T10:32:36.858Z,31.13
2018-02-15T10:35:04.913Z,32.07
2018-02-15T10:37:32.386Z,34.70
2018-02-15T10:39:59.924Z,36.30
2018-02-15T10:42:28.129Z,34.07
2018-02-15T10:44:55.629Z,33.43
2018-02-15T10:47:23.086Z,31.00
2018-02-15T10:49:51.332Z,32.80
2018-02-15T10:52:19.265Z,32.60
2018-02-15T10:54:46.759Z,32.90
2018-02-15T10:57:14.240Z,36.27
2018-02-15T10:59:42.578Z,34.47
2018-02-15T11:02:15.790Z,35.13
2018-02-15T11:04:49.778Z,35.60
2018-02-15T11:07:17.249Z,43.23
2018-02-15T11:09:44.732Z,37.60
2018-02-15T11:12:12.956Z,36.97
2018-02-15T11:14:40.937Z,31.93
2018-02-15T11:17:08.665Z,36.10
2018-02-15T11:19:36.143Z,34.03
2018-02-15T11:22:03.605Z,35.33
2018-02-15T11:24:31.197Z,31.60
2018-02-15T11:26:58.660Z,35.00
2018-02-15T11:29:26.897Z,31.27
2018-02-15T11:31:54.390Z,32.50
2018-02-15T11:34:21.885Z,28.87
2018-02-15T11:36:50.119Z,34.60
2018-02-15T11:39:17.633Z,29.10
2018-02-15T11:41:45.113Z,30.50
2018-02-15T11:44:12.601Z,33.50
2018-02-15T11:46:40.850Z,35.70
2018-02-15T11:49:08.487Z,37.13
2018-02-15T11:51:35.970Z,32.57
2018-02-15T11:54:03.574Z,36.17
2018-02-15T11:56:31.084Z,34.80
2018-02-15T11:58:58.533Z,40.60
2018-02-15T12:01:26.569Z,30.13
2018-02-15T12:03:54.077Z,34.10
2018-02-15T12:06:21.549Z,30.77
2018-02-15T12:08:49.781Z,28.63
2018-02-15T12:11:17.358Z,36.83
2018-02-15T12:13:44.823Z,37.20
2018-02-15T12:16:12.281Z,34.33
2018-02-15T12:18:39.755Z,25.93
2018-02-15T12:21:07.988Z,28.63
2018-02-15T12:23:35.474Z,28.60
2018-02-15T12:26:04.565Z,27.90
2018-02-15T12:28:32.770Z,31.20
2018-02-15T12:31:01.020Z,29.67
2018-02-15T12:33:28.505Z,29.57
2018-02-15T12:35:57.387Z,33.40
2018-02-15T12:38:25.648Z,28.10
2018-02-15T12:40:53.208Z,41.43
2018-02-15T12:43:20.633Z,29.27
2018-02-15T12:45:48.256Z,26.80
2018-02-15T12:48:15.693Z,28.13
2018-02-15T12:50:43.929Z,31.77
2018-02-15T12:53:11.426Z,27.47
2018-02-15T12:55:39.776Z,26.60
2018-02-15T12:58:07.421Z,29.23
2018-02-15T13:00:35.224Z,27.13
2018-02-15T13:03:02.756Z,26.40
2018-02-15T13:05:30.246Z,26.17
2018-02-15T13:07:58.531Z,27.70
2018-02-15T13:10:26.097Z,30.00
2018-02-15T13:13:05.588Z,23.47
2018-02-15T13:15:44.861Z,28.30
2018-02-15T13:18:12.392Z,29.80
2018-02-15T13:20:40.696Z,26.87
2018-02-15T13:23:08.228Z,23.67
2018-02-15T13:25:36.494Z,25.10
2018-02-15T13:28:15.926Z,39.03
2018-02-15T13:30:43.478Z,35.83
2018-02-15T13:33:11.000Z,39.90
2018-02-15T13:35:38.495Z,29.50
2018-02-15T13:38:06.158Z,34.03
2018-02-15T13:40:33.848Z,27.50
2018-02-15T13:43:02.106Z,27.20
2018-02-15T13:45:29.586Z,28.50
2018-02-15T13:47:57.832Z,25.60
2018-02-15T13:50:25.312Z,26.47
2018-02-15T13:52:53.653Z,30.90
2018-02-15T13:55:21.174Z,39.20
2018-02-15T13:57:48.680Z,29.87
2018-02-15T14:00:17.709Z,28.63
2018-02-15T14:02:45.998Z,26.07
2018-02-15T14:05:13.552Z,26.87
2018-02-15T14:07:41.216Z,26.20
2018-02-15T14:10:08.736Z,26.50
2018-02-15T14:12:36.458Z,26.70
2018-02-15T14:15:04.135Z,26.57
2018-02-15T14:17:31.652Z,29.23
2018-02-15T14:19:59.165Z,30.07
2018-02-15T14:22:27.485Z,23.93
2018-02-15T14:24:54.985Z,26.53
2018-02-15T14:27:22.489Z,25.43
2018-02-15T14:29:50.810Z,36.47
2018-02-15T14:32:18.351Z,27.63
2018-02-15T14:34:45.826Z,28.67
2018-02-15T14:37:13.440Z,30.60
2018-02-15T14:39:41.744Z,27.10
2018-02-15T14:42:09.303Z,28.00
2018-02-15T14:44:37.005Z,25.33
2018-02-15T14:47:05.283Z,28.07
2018-02-15T14:49:33.565Z,23.33
2018-02-15T14:52:01.154Z,24.47
2018-02-15T14:54:28.674Z,31.20
2018-02-15T14:56:56.145Z,22.07
2018-02-15T14:59:23.627Z,27.10
2018-02-15T15:01:51.860Z,24.43
2018-02-15T15:04:19.365Z,26.70
2018-02-15T15:06:47.647Z,26.73
2018-02-15T15:09:15.924Z,23.60
2018-02-15T15:11:43.456Z,28.00
2018-02-15T15:14:11.249Z,24.43
2018-02-15T15:16:38.795Z,23.00
2018-02-15T15:19:07.451Z,22.23
2018-02-15T15:21:34.962Z,22.27
2018-02-15T15:24:02.474Z,34.00
2018-02-15T15:26:29.982Z,26.20
2018-02-15T15:28:57.497Z,21.00
2018-02-15T15:31:25.059Z,19.20
2018-02-15T15:33:52.704Z,19.73
2018-02-15T15:36:20.336Z,19.47
2018-02-15T15:38:47.887Z,21.37
2018-02-15T15:41:15.390Z,18.97
2018-02-15T15:43:42.906Z,22.40
2018-02-15T15:46:10.533Z,21.43
2018-02-15T15:48:38.103Z,33.03
2018-02-15T15:51:05.619Z,23.60
2018-02-15T15:53:33.097Z,19.90
2018-02-15T15:56:01.345Z,23.60
2018-02-15T15:58:28.829Z,17.50
2018-02-15T16:00:57.205Z,17.87
2018-02-15T16:03:25.673Z,20.53
2018-02-15T16:05:53.352Z,19.03
2018-02-15T16:08:21.626Z,17.33
2018-02-15T16:10:49.113Z,16.70
2018-02-15T16:13:16.835Z,19.13
2018-02-15T16:15:45.879Z,17.57
2018-02-15T16:18:13.379Z,22.40
2018-02-15T16:20:40.868Z,22.40
2018-02-15T16:23:09.126Z,17.37
2018-02-15T16:25:37.394Z,20.33
2018-02-15T16:28:04.877Z,19.13
2018-02-15T16:30:32.369Z,18.33
2018-02-15T16:32:59.844Z,20.47
2018-02-15T16:35:27.469Z,17.17
2018-02-15T16:37:55.114Z,23.73
2018-02-15T16:40:23.345Z,16.40
2018-02-15T16:42:50.833Z,20.23
2018-02-15T16:45:19.186Z,16.93
2018-02-15T16:47:46.713Z,18.47
2018-02-15T16:50:14.490Z,15.60
2018-02-15T16:52:41.988Z,20.63
2018-02-15T16:55:09.513Z,21.93
2018-02-15T16:57:37.020Z,22.57
2018-02-15T17:00:04.559Z,22.90
2018-02-15T17:02:32.057Z,17.67
2018-02-15T17:04:59.571Z,19.40
2018-02-15T17:07:27.082Z,19.67
2018-02-15T17:09:55.604Z,16.83
2018-02-15T17:12:23.855Z,20.93
2018-02-15T17:14:51.357Z,18.60
2018-02-15T17:17:19.638Z,19.00
2018-02-15T17:19:47.908Z,21.13
2018-02-15T17:22:16.425Z,28.13
2018-02-15T17:24:43.934Z,20.40
2018-02-15T17:27:11.594Z,18.67
2018-02-15T17:29:39.171Z,18.63
2018-02-15T17:32:07.416Z,21.03
2018-02-15T17:34:35.740Z,21.40
2018-02-15T17:37:03.249Z,17.67
2018-02-15T17:39:30.730Z,25.83
2018-02-15T17:41:58.213Z,16.83
2018-02-15T17:44:25.800Z,23.63
2018-02-15T17:46:53.403Z,20.00
2018-02-15T17:49:20.966Z,16.77
2018-02-15T17:51:49.394Z,21.67
2018-02-15T17:54:16.904Z,19.13
2018-02-15T17:56:45.169Z,20.07
2018-02-15T17:59:12.716Z,22.23
2018-02-15T18:01:40.262Z,19.10
2018-02-15T18:04:07.756Z,19.60
2018-02-15T18:06:36.088Z,21.00
2018-02-15T18:09:03.671Z,22.70
2018-02-15T18:11:32.015Z,26.40
2018-02-15T18:13:59.503Z,30.30
2018-02-15T18:16:27.034Z,29.50
2018-02-15T18:18:54.568Z,23.77
2018-02-15T18:21:22.044Z,31.80
2018-02-15T18:23:49.553Z,21.33
2018-02-15T18:26:17.889Z,27.50
2018-02-15T18:28:45.607Z,24.33
2018-02-15T18:31:13.346Z,23.40
2018-02-15T18:33:41.070Z,22.27
2018-02-15T18:36:08.676Z,25.20
2018-02-15T18:38:36.672Z,23.43
2018-02-15T18:41:04.251Z,25.40
2018-02-15T18:43:32.035Z,42.30
2018-02-15T18:45:59.600Z,26.57
2018-02-15T18:48:27.405Z,22.43
2018-02-15T18:50:54.966Z,21.27
2018-02-15T18:53:22.702Z,26.57
2018-02-15T18:55:50.239Z,24.83
2018-02-15T18:58:17.757Z,23.03
2018-02-15T19:00:45.270Z,19.37
2018-02-15T19:03:12.833Z,22.40
2018-02-15T19:05:40.400Z,30.10
2018-02-15T19:08:07.932Z,17.80
2018-02-15T19:10:35.501Z,15.83
2018-02-15T19:13:03.005Z,18.93
2018-02-15T19:15:31.016Z,18.20
2018-02-15T19:17:58.616Z,15.77
2018-02-15T19:20:26.134Z,16.70
2018-02-15T19:22:53.606Z,19.03
2018-02-15T19:25:21.076Z,21.23
2018-02-15T19:27:48.540Z,22.83
2018-02-15T19:30:16.018Z,17.00
2018-02-15T19:32:44.256Z,14.13
2018-02-15T19:35:11.754Z,25.13
2018-02-15T19:37:39.996Z,22.27
2018-02-15T19:40:07.515Z,44.13
2018-02-15T19:42:35.019Z,29.30
2018-02-15T19:45:04.024Z,20.77
2018-02-15T19:47:32.279Z,28.50
2018-02-15T19:49:59.773Z,28.03
2018-02-15T19:52:27.239Z,27.23
2018-02-15T19:54:54.742Z,23.73
2018-02-15T19:57:22.228Z,31.03
2018-02-15T19:59:49.740Z,23.00
2018-02-15T20:02:17.693Z,20.47
2018-02-15T20:04:45.277Z,23.80
2018-02-15T20:07:12.826Z,19.03
2018-02-15T20:09:40.376Z,18.80
2018-02-15T20:12:07.977Z,16.90
2018-02-15T20:14:35.556Z,17.50
2018-02-15T20:17:04.468Z,17.80
2018-02-15T20:19:31.950Z,23.47
2018-02-15T20:21:59.450Z,20.23
2018-02-15T20:24:27.687Z,19.60
2018-02-15T20:27:00.956Z,14.33
2018-02-15T20:29:28.430Z,13.10
2018-02-15T20:31:55.902Z,14.23
2018-02-15T20:34:23.363Z,21.13
2018-02-15T20:36:50.856Z,14.53
2018-02-15T20:39:24.717Z,13.20
2018-02-15T20:41:52.193Z,10.97
2018-02-15T20:44:19.661Z,17.33
2018-02-15T20:46:47.166Z,15.70
2018-02-15T20:49:20.193Z,15.07
2018-02-15T20:51:53.514Z,20.23
2018-02-15T20:54:27.478Z,17.23
2018-02-15T20:56:55.640Z,16.70
2018-02-15T20:59:23.174Z,16.03
2018-02-15T21:01:50.652Z,20.10
2018-02-15T21:04:18.172Z,15.03
2018-02-15T21:06:46.417Z,22.37
2018-02-15T21:09:13.975Z,27.70
2018-02-15T21:11:41.656Z,47.73
2018-02-15T21:14:09.114Z,81.90
2018-02-15T21:16:36.607Z,110.77
2018-02-15T21:19:04.086Z,63.67
2018-02-15T21:21:31.569Z,77.40
2018-02-15T21:23:59.176Z,74.73
2018-02-15T21:26:26.765Z,67.23
2018-02-15T21:28:54.278Z,61.67
2018-02-15T21:31:22.578Z,80.33
2018-02-15T21:33:50.058Z,100.37
2018-02-15T21:36:17.539Z,81.77
2018-02-15T21:38:45.014Z,53.30
2018-02-15T21:41:12.623Z,15.23
2018-02-15T21:43:40.225Z,11.33
2018-02-15T21:46:07.761Z,11.77
2018-02-15T21:48:35.295Z,7.63
2018-02-15T21:51:02.754Z,10.17
2018-02-15T21:53:30.238Z,12.47
2018-02-15T21:55:57.718Z,10.70
2018-02-15T21:58:26.714Z,14.50
2018-02-15T22:00:55.100Z,9.87
2018-02-15T22:03:23.366Z,7.50
2018-02-15T22:05:50.842Z,11.90
2018-02-15T22:08:19.517Z,13.97
2018-02-15T22:10:47.828Z,12.10
2018-02-15T22:13:15.344Z,13.40
2018-02-15T22:15:42.826Z,22.97
2018-02-15T22:18:11.081Z,69.83
2018-02-15T22:20:39.333Z,61.13
2018-02-15T22:23:06.813Z,60.33
2018-02-15T22:25:34.291Z,108.13
2018-02-15T22:28:02.606Z,109.97
2018-02-15T22:30:30.062Z,110.33
2018-02-15T22:32:57.566Z,118.50
2018-02-15T22:35:25.809Z,59.40
2018-02-15T22:37:53.289Z,30.33
2018-02-15T22:40:20.776Z,12.27
2018-02-15T22:42:48.232Z,16.53
2018-02-15T22:45:15.724Z,14.13
2018-02-15T22:47:43.185Z,23.00
2018-02-15T22:50:10.652Z,35.47
2018-02-15T22:52:38.132Z,71.37
2018-02-15T22:55:05.613Z,28.60
2018-02-15T22:57:33.837Z,37.67
2018-02-15T23:00:01.433Z,88.73
2018-02-15T23:02:29.669Z,21.60
2018-02-15T23:04:57.141Z,13.87
2018-02-15T23:07:24.619Z,19.40
2018-02-15T23:09:52.863Z,38.13
2018-02-15T23:12:20.331Z,37.63
2018-02-15T23:14:47.853Z,11.03
2018-02-15T23:17:15.497Z,32.10
2018-02-15T23:19:43.016Z,18.77
2018-02-15T23:22:10.678Z,8.23
2018-02-15T23:24:38.212Z,14.43
2018-02-15T23:27:05.710Z,12.20
2018-02-15T23:29:33.946Z,11.60
2018-02-15T23:32:01.417Z,15.00
2018-02-15T23:34:29.703Z,12.30
2018-02-15T23:36:57.172Z,11.80
2018-02-15T23:39:25.402Z,15.90
2018-02-15T23:41:52.953Z,17.90
2018-02-15T23:44:20.519Z,11.53
2018-02-15T23:46:47.996Z,17.13
2018-02-15T23:49:15.470Z,44.23
2018-02-15T23:51:42.953Z,22.83
2018-02-15T23:54:11.226Z,15.13
2018-02-15T23:56:39.549Z,11.10
2018-02-15T23:59:07.036Z,23.30
